Time;durP1;ratioP1;P1;durP2;ratioP2;P2;SDS_P1;SDS_P2;PMS_P1;PMS_P2;Temp;Humidity;BMP_temperature;BMP_pressure;BME280_temperature;BME280_humidity;BME280_pressure;Samples;Min_cycle;Max_cycle;Signal;HPM_P1;HPM_P2
2022/08/26 00:00:38;;;;;;;;;;;20.20;99.90;;;;;;5036710;28;20041;-84
2022/08/26 00:03:03;;;;;;;3.83;2.72;;;20.20;99.90;;;;;;5034433;28;20003;-84
2022/08/26 00:05:29;;;;;;;;;;;20.20;99.90;;;;;;5036217;28;20045;-84
2022/08/26 00:07:56;;;;;;;3.95;3.28;;;20.30;99.90;;;;;;5052853;28;20496;-84
2022/08/26 00:10:22;;;;;;;4.22;2.80;;;20.40;99.90;;;;;;5032169;28;20079;-84
2022/08/26 00:12:47;;;;;;;2.47;2.00;;;20.30;99.90;;;;;;5050918;28;20427;-84
2022/08/26 00:15:14;;;;;;;;;;;20.30;99.90;;;;;;5018396;28;20036;-84
2022/08/26 00:17:40;;;;;;;3.70;2.58;;;20.30;99.90;;;;;;5052234;28;19916;-84
2022/08/26 00:20:07;;;;;;;2.55;2.30;;;20.30;99.90;;;;;;5051272;28;20102;-83
2022/08/26 00:22:33;;;;;;;2.00;1.60;;;20.30;99.90;;;;;;5032687;28;20033;-84
2022/08/26 00:24:58;;;;;;;;;;;20.30;99.90;;;;;;5050397;28;20091;-84
2022/08/26 00:27:24;;;;;;;5.97;3.15;;;20.30;99.90;;;;;;5053465;28;19921;-83
2022/08/26 00:29:50;;;;;;;3.20;2.72;;;20.30;99.90;;;;;;5036328;28;20619;-83
2022/08/26 00:32:16;;;;;;;;;;;20.40;99.90;;;;;;5048427;28;20105;-83
2022/08/26 00:34:41;;;;;;;7.43;5.13;;;20.30;99.90;;;;;;5033372;28;19920;-84
2022/08/26 00:37:08;;;;;;;;;;;20.50;99.90;;;;;;5051401;28;20048;-84
2022/08/26 00:39:34;;;;;;;5.07;3.20;;;20.50;99.90;;;;;;5050119;28;19917;-85
2022/08/26 00:41:59;;;;;;;;;;;20.30;99.90;;;;;;5050068;28;20047;-76
2022/08/26 00:44:25;;;;;;;6.68;3.67;;;20.50;99.90;;;;;;5023667;28;19990;-75
2022/08/26 00:46:54;;;;;;;;;;;20.40;99.90;;;;;;5046700;28;20064;-75
2022/08/26 00:49:46;;;;;;;6.20;3.75;;;20.50;99.90;;;;;;5047754;28;20371;-75
2022/08/26 00:52:16;;;;;;;7.72;4.57;;;20.30;99.90;;;;;;5040552;28;20396;-75
2022/08/26 00:54:48;;;;;;;10.70;4.72;;;20.50;99.90;;;;;;5015689;28;20041;-75
2022/08/26 00:57:16;;;;;;;7.03;5.32;;;20.30;99.90;;;;;;5021812;28;20044;-76
2022/08/26 00:59:45;;;;;;;9.88;6.10;;;20.50;99.90;;;;;;5046227;28;20045;-76
2022/08/26 01:02:12;;;;;;;6.82;4.63;;;20.50;99.90;;;;;;5047396;28;20043;-76
2022/08/26 01:04:38;;;;;;;7.47;4.78;;;20.50;99.90;;;;;;5028980;28;20049;-76
2022/08/26 01:07:05;;;;;;;7.28;4.35;;;20.40;99.90;;;;;;5050256;28;20499;-84
2022/08/26 01:09:32;;;;;;;6.40;4.40;;;20.50;99.90;;;;;;5048309;28;20080;-84
2022/08/26 01:12:00;;;;;;;4.70;3.78;;;20.50;99.90;;;;;;5031926;28;20435;-84
2022/08/26 01:14:29;;;;;;;5.13;3.60;;;20.30;99.90;;;;;;5034820;28;20120;-84
2022/08/26 01:16:55;;;;;;;7.75;5.10;;;20.20;99.90;;;;;;5045498;28;20102;-84
2022/08/26 01:19:23;;;;;;;;;;;20.40;99.90;;;;;;5034126;28;20411;-84
2022/08/26 01:22:06;;;;;;;4.95;3.95;;;20.40;99.90;;;;;;5050060;28;20833;-84
2022/08/26 01:24:32;;;;;;;10.23;6.40;;;20.40;99.90;;;;;;5032761;28;20040;-84
2022/08/26 01:27:02;;;;;;;;;;;20.20;99.90;;;;;;5035207;28;20419;-84
2022/08/26 01:29:30;;;;;;;6.53;4.53;;;20.10;99.90;;;;;;5049784;28;20405;-85
2022/08/26 01:31:56;;;;;;;9.45;6.22;;;20.40;99.90;;;;;;5052093;28;20171;-84
2022/08/26 01:34:29;;;;;;;7.85;6.15;;;20.10;99.90;;;;;;5046969;28;20044;-84
2022/08/26 01:37:03;;;;;;;11.98;7.40;;;20.20;99.90;;;;;;5044179;28;20052;-84
2022/08/26 01:39:31;;;;;;;8.38;5.72;;;20.00;99.90;;;;;;5056571;28;20089;-84
2022/08/26 01:41:58;;;;;;;8.82;5.50;;;20.20;99.90;;;;;;5040129;28;20036;-84
2022/08/26 01:44:29;;;;;;;8.00;5.65;;;20.00;99.90;;;;;;5042410;28;20186;-84
2022/08/26 01:46:57;;;;;;;6.45;4.93;;;20.00;99.90;;;;;;5056836;28;20175;-84
2022/08/26 01:49:25;;;;;;;6.90;4.70;;;20.30;99.90;;;;;;5052921;28;20047;-84
2022/08/26 01:51:53;;;;;;;9.30;6.00;;;20.00;99.90;;;;;;5060168;28;20066;-84
2022/08/26 01:54:19;;;;;;;6.18;3.70;;;20.20;99.90;;;;;;5058145;28;20383;-84
2022/08/26 01:56:45;;;;;;;;;;;20.10;99.90;;;;;;5039607;28;20039;-85
2022/08/26 01:59:13;;;;;;;5.93;4.10;;;20.00;99.90;;;;;;5064779;28;20386;-84
2022/08/26 02:01:39;;;;;;;7.47;4.90;;;20.00;99.90;;;;;;5057053;28;20048;-83
2022/08/26 02:04:05;;;;;;;;;;;20.10;99.90;;;;;;5062815;28;20037;-83
2022/08/26 02:06:31;;;;;;;6.30;4.20;;;20.20;99.90;;;;;;5051465;28;19954;-84
2022/08/26 02:09:00;;;;;;;9.00;5.90;;;20.30;99.90;;;;;;5060741;28;20078;-83
2022/08/26 02:11:26;;;;;;;10.98;6.35;;;20.10;99.90;;;;;;5049793;28;20037;-83
2022/08/26 02:14:07;;;;;;;;;;;20.30;99.90;;;;;;5022007;28;20098;-84
2022/08/26 02:16:38;;;;;;;9.27;6.80;;;20.20;99.90;;;;;;5052877;28;19920;-84
2022/08/26 02:19:08;;;;;;;7.32;5.88;;;20.10;99.90;;;;;;5058336;28;20578;-84
2022/08/26 02:21:34;;;;;;;8.80;6.30;;;20.30;99.90;;;;;;5056459;28;20552;-83
2022/08/26 02:24:13;;;;;;;9.63;6.43;;;20.30;99.90;;;;;;5055685;28;20075;-84
2022/08/26 02:26:39;;;;;;;9.98;6.90;;;20.10;99.90;;;;;;5043602;28;20119;-85
2022/08/26 02:29:10;;;;;;;9.68;6.22;;;20.30;99.90;;;;;;5043488;28;20491;-84
2022/08/26 02:31:36;;;;;;;11.85;6.93;;;20.10;99.90;;;;;;5037489;28;20132;-84
2022/08/26 02:34:09;;;;;;;;;;;20.10;99.90;;;;;;5056704;28;20140;-84
2022/08/26 02:36:34;;;;;;;7.78;5.53;;;20.00;99.90;;;;;;5057843;28;20363;-84
2022/08/26 02:39:00;;;;;;;;;;;20.30;99.90;;;;;;5051809;28;20120;-76
2022/08/26 02:41:26;;;;;;;8.63;5.90;;;20.30;99.90;;;;;;5045369;28;19920;-76
2022/08/26 02:43:51;;;;;;;;;;;20.10;99.90;;;;;;5023998;28;20036;-76
2022/08/26 02:46:17;;;;;;;12.38;6.60;;;20.10;99.90;;;;;;5046338;28;20018;-76
2022/08/26 02:48:43;;;;;;;;;;;20.10;99.90;;;;;;5014025;28;20044;-76
2022/08/26 02:51:10;;;;;;;11.02;7.45;;;20.30;99.90;;;;;;5053105;28;19935;-76
2022/08/26 02:53:36;;;;;;;8.13;5.90;;;20.20;99.90;;;;;;5038728;28;20408;-76
2022/08/26 02:56:03;;;;;;;;;;;20.00;99.90;;;;;;5027310;28;20048;-75
2022/08/26 02:58:28;;;;;;;11.25;6.32;;;20.00;99.90;;;;;;5046371;28;20379;-75
2022/08/26 03:00:54;;;;;;;;;;;20.10;99.90;;;;;;5014371;28;20074;-75
2022/08/26 03:03:21;;;;;;;9.00;6.15;;;20.00;99.90;;;;;;5044700;28;19920;-75
2022/08/26 03:05:47;;;;;;;7.45;5.40;;;20.00;99.90;;;;;;5047106;28;20090;-76
2022/08/26 03:08:12;;;;;;;;;;;20.00;99.90;;;;;;5030693;28;20048;-76
2022/08/26 03:10:39;;;;;;;10.30;6.05;;;20.00;99.90;;;;;;5028555;28;20061;-76
2022/08/26 03:13:04;;;;;;;7.95;4.85;;;20.20;99.90;;;;;;5045260;28;20045;-77
2022/08/26 03:15:31;;;;;;;;;;;20.30;99.90;;;;;;5032448;28;20119;-75
2022/08/26 03:17:57;;;;;;;7.63;4.82;;;20.20;99.90;;;;;;5047082;28;19928;-76
2022/08/26 03:20:23;;;;;;;;;;;20.00;99.90;;;;;;5032609;28;20036;-84
2022/08/26 03:22:52;;;;;;;8.02;4.60;;;20.20;99.90;;;;;;5055282;28;20011;-83
2022/08/26 03:25:19;;;;;;;8.93;5.45;;;20.20;99.90;;;;;;5044760;28;20040;-83
2022/08/26 03:27:45;;;;;;;6.82;4.30;;;20.10;99.90;;;;;;5047777;28;20395;-84
2022/08/26 03:32:58;;;;;;;10.15;5.85;;;20.10;99.90;;;;;;5043427;28;20830;-85
2022/08/26 03:35:24;;;;;;;;;;;20.10;99.90;;;;;;5028218;28;20055;-85
2022/08/26 03:37:51;;;;;;;7.63;5.43;;;20.20;99.90;;;;;;5045894;28;19974;-82
2022/08/26 03:40:18;;;;;;;11.80;6.53;;;20.00;99.90;;;;;;5047348;28;20124;-83
2022/08/26 03:42:44;;;;;;;8.82;5.88;;;20.20;99.90;;;;;;5030362;28;22025;-84
2022/08/26 03:45:10;;;;;;;;;;;20.20;99.90;;;;;;5044421;28;20048;-84
2022/08/26 03:47:38;;;;;;;6.05;4.30;;;20.10;99.90;;;;;;5044924;28;19924;-84
2022/08/26 03:50:06;;;;;;;4.93;3.65;;;19.90;99.90;;;;;;5031185;28;20116;-83
2022/08/26 03:52:32;;;;;;;7.30;5.10;;;20.00;99.90;;;;;;5040203;28;20049;-75
2022/08/26 03:54:58;;;;;;;;;;;20.10;99.90;;;;;;5042247;28;20041;-74
2022/08/26 03:57:23;;;;;;;8.55;5.22;;;19.90;99.90;;;;;;5042529;28;20109;-75
2022/08/26 03:59:49;;;;;;;;;;;19.90;99.90;;;;;;5025966;28;20094;-75
2022/08/26 04:02:15;;;;;;;6.88;4.18;;;20.00;99.90;;;;;;5008982;28;19928;-75
2022/08/26 04:04:40;;;;;;;;;;;19.90;99.90;;;;;;5010946;28;20483;-75
2022/08/26 04:07:06;;;;;;;6.32;4.15;;;19.90;99.90;;;;;;5023625;28;19916;-75
2022/08/26 04:09:31;;;;;;;;;;;19.90;99.90;;;;;;5015762;28;20083;-75
2022/08/26 04:11:57;;;;;;;8.30;4.88;;;19.90;99.90;;;;;;5018484;28;19924;-75
2022/08/26 04:14:23;;;;;;;;;;;19.80;99.90;;;;;;5018179;28;20040;-75
2022/08/26 04:16:51;;;;;;;7.57;5.60;;;20.00;99.90;;;;;;5024740;28;20023;-75
2022/08/26 04:19:18;;;;;;;11.00;5.30;;;19.80;99.90;;;;;;5042811;28;20047;-75
2022/08/26 04:21:46;;;;;;;7.78;5.35;;;19.80;99.90;;;;;;5041179;28;20078;-75
2022/08/26 04:24:14;;;;;;;6.93;5.30;;;19.80;99.90;;;;;;5016787;28;20124;-76
2022/08/26 04:26:40;;;;;;;6.57;4.78;;;19.70;99.90;;;;;;5041409;28;20037;-75
2022/08/26 04:29:13;;;;;;;6.85;4.63;;;19.80;99.90;;;;;;5041754;28;20041;-76
2022/08/26 04:31:40;;;;;;;8.80;5.60;;;19.70;99.90;;;;;;5039609;28;20137;-76
2022/08/26 04:34:06;;;;;;;7.97;5.35;;;19.70;99.90;;;;;;5041797;28;20053;-76
2022/08/26 04:36:33;;;;;;;8.48;5.50;;;19.80;99.90;;;;;;5036601;28;20438;-76
2022/08/26 04:39:01;;;;;;;7.28;4.70;;;19.90;99.90;;;;;;5042536;28;20049;-77
2022/08/26 04:41:27;;;;;;;7.05;4.72;;;19.70;99.90;;;;;;5028524;28;20037;-78
2022/08/26 04:43:53;;;;;;;8.63;4.95;;;19.70;99.90;;;;;;5012331;28;20076;-78
2022/08/26 04:46:21;;;;;;;;;;;19.90;99.90;;;;;;5047389;28;20045;-83
2022/08/26 04:48:50;;;;;;;8.43;5.22;;;19.90;99.90;;;;;;5049961;28;19923;-83
2022/08/26 04:51:16;;;;;;;7.22;4.30;;;19.70;99.90;;;;;;5048241;28;20036;-85
2022/08/26 04:53:42;;;;;;;8.38;4.60;;;19.90;99.90;;;;;;5032511;28;20041;-86
2022/08/26 04:56:08;;;;;;;7.93;4.70;;;19.80;99.90;;;;;;5028146;28;20049;-86
2022/08/26 04:58:34;;;;;;;;;;;19.90;99.90;;;;;;5038085;28;20052;-86
2022/08/26 05:01:00;;;;;;;8.13;4.20;;;19.80;99.90;;;;;;5053482;28;20374;-88
2022/08/26 05:03:26;;;;;;;;;;;19.70;99.90;;;;;;5035169;28;20124;-86
2022/08/26 05:05:52;;;;;;;7.15;3.80;;;19.90;99.90;;;;;;5047716;28;19962;-86
2022/08/26 05:08:19;;;;;;;;;;;19.80;99.90;;;;;;5032138;28;20041;-85
2022/08/26 05:10:54;;;;;;;7.85;4.75;;;19.60;99.90;;;;;;5046414;28;19921;-84
2022/08/26 05:13:23;;;;;;;7.72;4.85;;;19.60;99.90;;;;;;5052678;28;20083;-85
2022/08/26 05:15:49;;;;;;;5.80;3.70;;;19.70;99.90;;;;;;5041184;28;20032;-85
2022/08/26 05:18:17;;;;;;;6.68;4.30;;;19.90;99.90;;;;;;5034410;28;20047;-85
2022/08/26 05:20:46;;;;;;;5.43;3.95;;;19.70;99.90;;;;;;5032571;28;20076;-85
2022/08/26 05:23:12;;;;;;;10.15;5.25;;;19.80;99.90;;;;;;5049865;28;20060;-86
2022/08/26 05:25:40;;;;;;;8.40;4.55;;;19.80;99.90;;;;;;5048195;28;20048;-86
2022/08/26 05:28:10;;;;;;;9.43;5.60;;;19.80;99.90;;;;;;5049787;28;20076;-85
2022/08/26 05:30:37;;;;;;;6.28;4.07;;;19.70;99.90;;;;;;5029304;28;20115;-79
2022/08/26 05:33:03;;;;;;;7.22;4.20;;;19.80;99.90;;;;;;5068557;28;20118;-85
2022/08/26 05:35:32;;;;;;;6.82;3.88;;;19.70;99.90;;;;;;5030387;28;20094;-84
2022/08/26 05:38:00;;;;;;;7.00;3.92;;;19.80;99.90;;;;;;5048686;28;20112;-84
2022/08/26 05:40:27;;;;;;;5.85;4.00;;;19.90;99.90;;;;;;5053124;28;20461;-83
2022/08/26 05:42:53;;;;;;;5.90;3.55;;;19.80;99.90;;;;;;5048494;28;20048;-82
2022/08/26 05:45:19;;;;;;;;;;;20.00;99.90;;;;;;5048842;28;20041;-86
2022/08/26 05:47:45;;;;;;;6.43;3.35;;;19.80;99.90;;;;;;5047202;28;19917;-86
2022/08/26 05:50:10;;;;;;;;;;;19.90;99.90;;;;;;5029111;28;20099;-85
2022/08/26 05:52:36;;;;;;;8.55;4.40;;;20.00;99.90;;;;;;5027746;28;20371;-85
2022/08/26 05:55:03;;;;;;;;;;;20.10;99.90;;;;;;5051262;28;20029;-85
2022/08/26 05:57:29;;;;;;;6.28;4.00;;;20.00;99.90;;;;;;5031379;28;19917;-85
2022/08/26 05:59:55;;;;;;;7.07;4.00;;;19.90;99.90;;;;;;5048665;28;20045;-86
2022/08/26 06:02:22;;;;;;;6.10;3.30;;;20.10;99.90;;;;;;5047766;28;20099;-85
2022/08/26 06:04:48;;;;;;;7.50;3.50;;;20.20;99.90;;;;;;5031500;28;20456;-84
2022/08/26 06:07:15;;;;;;;;;;;20.20;99.90;;;;;;5032416;28;20136;-85
2022/08/26 06:09:41;;;;;;;7.00;3.78;;;20.30;99.90;;;;;;5034713;28;19939;-85
2022/08/26 06:12:08;;;;;;;8.02;3.90;;;20.30;99.90;;;;;;5046920;28;20053;-85
2022/08/26 06:14:34;;;;;;;8.02;3.17;;;20.20;99.90;;;;;;5045939;28;20115;-85
2022/08/26 06:17:00;;;;;;;5.55;3.45;;;20.30;99.90;;;;;;5030101;28;20408;-85
2022/08/26 06:19:26;;;;;;;;;;;20.30;99.90;;;;;;5049512;28;20907;-82
2022/08/26 06:21:53;;;;;;;9.05;3.58;;;20.20;99.90;;;;;;5033651;28;19916;-82
2022/08/26 06:27:08;;;;;;;4.85;2.58;;;20.40;99.90;;;;;;5039438;28;20088;-78
2022/08/26 06:29:35;;;;;;;5.38;2.10;;;20.40;99.90;;;;;;5061561;28;20041;-78
2022/08/26 06:32:02;;;;;;;3.63;2.33;;;20.40;99.90;;;;;;5034529;28;20341;-78
2022/08/26 06:34:29;;;;;;;5.97;2.83;;;20.40;99.90;;;;;;5053381;28;20048;-78
2022/08/26 06:36:57;;;;;;;5.32;2.70;;;20.30;99.90;;;;;;5036180;28;20040;-78
2022/08/26 06:39:23;;;;;;;6.22;3.00;;;20.40;99.90;;;;;;5052439;28;20029;-78
2022/08/26 06:41:49;;;;;;;5.30;2.33;;;20.50;99.90;;;;;;5052458;28;20503;-78
2022/08/26 06:44:16;;;;;;;5.75;2.80;;;20.30;99.90;;;;;;5035260;28;20041;-78
2022/08/26 06:46:42;;;;;;;5.65;2.58;;;20.40;99.90;;;;;;5052326;28;20321;-79
2022/08/26 06:49:09;;;;;;;3.85;2.30;;;20.30;99.90;;;;;;5052731;28;20052;-82
2022/08/26 06:51:37;;;;;;;4.63;2.50;;;20.40;99.90;;;;;;5035026;28;20442;-83
2022/08/26 06:54:04;;;;;;;6.47;2.92;;;20.40;99.90;;;;;;5052718;28;20392;-82
2022/08/26 06:56:42;;;;;;;5.65;2.80;;;20.30;99.90;;;;;;5052423;28;20513;-83
2022/08/26 06:59:09;;;;;;;4.75;2.60;;;20.20;99.90;;;;;;5052763;28;20455;-83
2022/08/26 07:01:44;;;;;;;4.72;2.67;;;20.40;99.90;;;;;;5037002;28;20102;-82
2022/08/26 07:04:16;;;;;;;3.80;2.13;;;20.10;99.90;;;;;;5032302;28;20040;-79
2022/08/26 07:06:48;;;;;;;6.95;2.80;;;20.20;99.90;;;;;;5044114;28;20170;-79
2022/08/26 07:09:15;;;;;;;4.57;2.60;;;20.30;99.90;;;;;;5041662;28;20052;-79
2022/08/26 07:11:41;;;;;;;4.97;2.90;;;20.30;99.90;;;;;;5041974;28;20036;-79
2022/08/26 07:14:07;;;;;;;;;;;20.30;99.90;;;;;;5029777;28;20043;-78
2022/08/26 07:16:33;;;;;;;5.35;2.45;;;20.10;99.90;;;;;;5029037;28;19939;-80
2022/08/26 07:18:59;;;;;;;;;;;20.20;99.90;;;;;;5046953;28;20047;-79
2022/08/26 07:21:25;;;;;;;7.45;2.75;;;20.30;99.90;;;;;;5036984;28;19938;-80
2022/08/26 07:23:52;;;;;;;5.30;2.58;;;20.20;99.90;;;;;;5021178;28;20040;-83
2022/08/26 07:26:21;;;;;;;4.88;2.30;;;20.20;99.90;;;;;;5051075;28;20048;-78
2022/08/26 07:28:52;;;;;;;5.38;2.42;;;20.10;99.90;;;;;;5034876;28;20055;-79
2022/08/26 07:31:20;;;;;;;3.88;2.00;;;20.30;99.90;;;;;;5050427;28;20148;-79
2022/08/26 07:33:47;;;;;;;4.20;1.90;;;20.30;99.90;;;;;;5051959;28;20087;-81
2022/08/26 07:36:14;;;;;;;4.55;2.05;;;20.50;99.90;;;;;;5018105;28;20053;-80
2022/08/26 07:38:41;;;;;;;4.93;1.98;;;20.50;99.90;;;;;;5046622;28;20144;-81
2022/08/26 07:41:07;;;;;;;3.95;1.50;;;20.30;99.90;;;;;;5012666;28;20052;-81
2022/08/26 07:43:34;;;;;;;4.47;1.85;;;20.50;99.90;;;;;;5018340;28;20096;-80
2022/08/26 07:46:00;;;;;;;5.00;2.00;;;20.30;99.90;;;;;;5047898;28;20041;-81
2022/08/26 07:48:26;;;;;;;;;;;20.40;99.90;;;;;;5029208;28;20098;-81
2022/08/26 07:50:52;;;;;;;4.43;1.98;;;20.40;99.90;;;;;;5050964;28;19928;-81
2022/08/26 07:53:19;;;;;;;3.85;1.40;;;20.40;99.90;;;;;;5013165;28;20162;-80
2022/08/26 07:55:45;;;;;;;5.45;1.65;;;20.20;99.90;;;;;;5028979;28;20095;-81
2022/08/26 07:58:10;;;;;;;;;;;20.40;99.90;;;;;;5064000;28;20563;-80
2022/08/26 08:00:36;;;;;;;3.22;1.52;;;20.40;99.90;;;;;;5045320;28;19920;-81
2022/08/26 08:03:03;;;;;;;;;;;20.30;99.90;;;;;;5040019;28;20213;-79
2022/08/26 08:05:31;;;;;;;5.13;1.60;;;20.40;99.90;;;;;;5041157;28;19966;-81
2022/08/26 08:08:02;;;;;;;7.78;1.70;;;20.30;99.90;;;;;;5040424;28;20041;-80
2022/08/26 08:10:29;;;;;;;5.05;1.75;;;20.40;99.90;;;;;;5044258;28;21663;-82
2022/08/26 08:12:56;;;;;;;4.07;1.25;;;20.40;99.90;;;;;;5009305;28;20082;-82
2022/08/26 08:15:25;;;;;;;3.90;1.20;;;20.60;99.90;;;;;;5047609;28;20046;-80
2022/08/26 08:17:51;;;;;;;4.97;1.27;;;20.60;99.90;;;;;;5041865;28;20039;-79
2022/08/26 08:20:17;;;;;;;;;;;20.70;99.90;;;;;;5047103;28;20048;-79
2022/08/26 08:22:43;;;;;;;8.55;1.73;;;20.60;99.90;;;;;;5031841;28;19924;-80
2022/08/26 08:25:08;;;;;;;;;;;20.50;99.90;;;;;;5052343;28;20499;-80
2022/08/26 08:27:36;;;;;;;3.95;1.33;;;20.60;99.90;;;;;;5054129;28;20019;-80
2022/08/26 08:30:03;;;;;;;5.72;1.27;;;20.50;99.90;;;;;;5052827;28;20084;-81
2022/08/26 08:32:29;;;;;;;4.60;1.23;;;20.50;99.90;;;;;;5046648;28;20511;-79
2022/08/26 08:34:55;;;;;;;;;;;20.40;99.90;;;;;;5031400;28;20053;-81
2022/08/26 08:37:22;;;;;;;1.83;0.85;;;20.60;99.90;;;;;;5050864;28;19964;-80
2022/08/26 08:39:48;;;;;;;4.70;1.27;;;20.50;99.90;;;;;;5033991;28;20511;-81
2022/08/26 08:42:34;;;;;;;3.03;1.10;;;20.50;99.90;;;;;;5047368;28;20115;-79
2022/08/26 08:45:06;;;;;;;2.07;0.90;;;20.50;99.90;;;;;;5042108;28;20041;-80
2022/08/26 08:47:41;;;;;;;3.00;0.93;;;20.40;99.90;;;;;;5031477;28;20364;-80
2022/08/26 08:50:10;;;;;;;3.58;0.80;;;20.60;99.90;;;;;;5050483;28;20041;-76
2022/08/26 08:52:37;;;;;;;5.78;1.15;;;20.60;99.90;;;;;;5046376;28;20041;-81
2022/08/26 08:55:05;;;;;;;5.95;1.60;;;20.40;99.90;;;;;;5034749;28;20174;-79
2022/08/26 08:57:50;;;;;;;2.58;1.00;;;20.50;99.90;;;;;;5052233;28;20129;-80
2022/08/26 09:00:18;;;;;;;3.60;1.30;;;20.50;99.90;;;;;;5046879;28;20110;-79
2022/08/26 09:02:51;;;;;;;4.50;1.17;;;20.40;99.90;;;;;;5021031;28;20128;-78
2022/08/26 09:05:21;;;;;;;4.15;1.33;;;20.50;99.90;;;;;;5033773;28;20041;-80
2022/08/26 09:07:52;;;;;;;4.90;1.30;;;20.40;99.90;;;;;;5048605;28;20045;-81
2022/08/26 09:10:52;;;;;;;3.55;1.33;;;20.20;99.90;;;;;;5039659;28;20052;-81
2022/08/26 09:13:19;;;;;;;4.18;1.27;;;20.10;99.90;;;;;;5036523;28;20053;-79
2022/08/26 09:15:57;;;;;;;5.05;1.40;;;20.10;99.90;;;;;;5048048;28;20041;-77
2022/08/26 09:18:54;;;;;;;3.47;1.42;;;20.00;99.90;;;;;;5035253;28;20037;-78
2022/08/26 09:21:22;;;;;;;5.00;1.33;;;20.00;99.90;;;;;;5040363;28;20045;-78
2022/08/26 09:23:49;;;;;;;5.75;1.40;;;20.20;99.90;;;;;;5022301;28;20045;-78
2022/08/26 09:26:18;;;;;;;3.17;1.00;;;20.10;99.90;;;;;;5018313;28;20040;-76
2022/08/26 09:28:47;;;;;;;2.80;1.05;;;20.10;99.90;;;;;;5042997;28;20044;-78
2022/08/26 09:31:23;;;;;;;2.92;1.42;;;20.30;99.90;;;;;;5045717;28;20132;-78
2022/08/26 09:34:12;;;;;;;2.95;1.15;;;20.30;99.90;;;;;;5027100;28;20052;-78
2022/08/26 09:36:41;;;;;;;4.50;1.20;;;20.40;99.90;;;;;;5045779;28;20047;-77
2022/08/26 09:39:35;;;;;;;4.32;1.20;;;20.30;99.90;;;;;;5047150;28;20047;-78
2022/08/26 09:42:04;;;;;;;2.55;0.80;;;20.40;99.90;;;;;;5038540;28;20115;-78
2022/08/26 09:44:30;;;;;;;1.90;0.80;;;20.60;99.90;;;;;;5042926;28;20041;-78
2022/08/26 09:47:06;;;;;;;2.50;0.95;;;20.70;99.90;;;;;;5039402;28;20049;-77
2022/08/26 09:49:35;;;;;;;3.35;1.10;;;20.50;99.90;;;;;;5049380;28;20033;-78
2022/08/26 09:52:14;;;;;;;3.25;1.15;;;20.70;99.90;;;;;;5032455;28;20040;-78
2022/08/26 09:54:43;;;;;;;2.03;0.98;;;20.50;99.90;;;;;;5049205;28;20484;-79
2022/08/26 09:57:28;;;;;;;2.70;1.10;;;20.60;99.90;;;;;;5031970;28;20084;-78
2022/08/26 09:59:54;;;;;;;2.55;1.10;;;20.70;99.90;;;;;;5038613;28;20140;-78
2022/08/26 10:02:33;;;;;;;2.33;0.90;;;20.60;99.90;;;;;;5048809;28;20171;-78
2022/08/26 10:05:02;;;;;;;6.97;1.60;;;20.50;99.90;;;;;;5031230;28;20080;-79
2022/08/26 10:07:49;;;;;;;4.05;1.35;;;20.50;99.90;;;;;;5048072;28;20053;-79
2022/08/26 10:10:31;;;;;;;5.10;1.20;;;20.50;99.90;;;;;;5047050;28;20045;-78
2022/08/26 10:13:09;;;;;;;3.72;1.60;;;20.40;99.90;;;;;;5044725;28;20037;-79
2022/08/26 10:15:51;;;;;;;4.25;1.30;;;20.00;99.90;;;;;;5043313;28;20040;-79
2022/08/26 10:18:25;;;;;;;5.53;1.45;;;20.30;99.90;;;;;;5046013;28;20121;-79
2022/08/26 10:21:01;;;;;;;3.80;1.20;;;20.40;99.90;;;;;;5045946;28;20048;-78
2022/08/26 10:23:31;;;;;;;4.07;1.10;;;20.30;99.90;;;;;;5029140;28;20051;-80
2022/08/26 10:26:10;;;;;;;3.83;1.45;;;20.30;99.90;;;;;;5042357;28;20048;-80
2022/08/26 10:29:07;;;;;;;3.83;1.30;;;20.40;99.90;;;;;;5047120;28;20037;-80
2022/08/26 10:31:54;;;;;;;5.68;1.35;;;20.30;99.90;;;;;;5050244;28;20041;-81
2022/08/26 10:34:20;;;;;;;3.50;1.10;;;20.30;99.90;;;;;;5049564;28;20060;-79
2022/08/26 10:37:11;;;;;;;3.22;1.20;;;20.30;99.90;;;;;;5046952;28;20568;-79
2022/08/26 10:39:40;;;;;;;6.57;1.33;;;20.40;99.90;;;;;;5026183;28;20451;-79
2022/08/26 10:42:14;;;;;;;3.30;1.13;;;20.30;99.90;;;;;;5049411;28;20098;-81
2022/08/26 10:44:43;;;;;;;4.05;1.55;;;20.20;99.90;;;;;;5049703;28;20082;-79
2022/08/26 10:47:15;;;;;;;3.38;1.13;;;20.20;99.90;;;;;;5049574;28;20048;-80
2022/08/26 10:49:43;;;;;;;4.32;1.15;;;20.20;99.90;;;;;;5032924;28;20500;-80
2022/08/26 10:52:47;;;;;;;1.80;0.90;;;20.30;99.90;;;;;;5049304;28;20405;-80
2022/08/26 10:55:27;;;;;;;3.28;1.00;;;20.20;99.90;;;;;;5018869;28;20048;-79
2022/08/26 10:58:31;;;;;;;5.55;1.30;;;20.30;99.90;;;;;;5032900;28;20361;-77
2022/08/26 11:04:27;;;;;;;5.13;1.30;;;20.10;99.90;;;;;;5048249;28;20060;-77
2022/08/26 11:07:31;;;;;;;3.10;1.10;;;20.20;99.90;;;;;;5033018;28;20510;-78
2022/08/26 11:10:00;;;;;;;2.53;0.90;;;20.30;99.90;;;;;;5028808;28;20448;-78
2022/08/26 11:12:35;;;;;;;2.35;1.20;;;20.50;99.90;;;;;;5032437;28;20045;-78
2022/08/26 11:15:07;;;;;;;3.47;1.40;;;20.50;99.90;;;;;;5030796;28;20170;-76
2022/08/26 11:17:45;;;;;;;5.13;1.60;;;20.70;99.90;;;;;;5032102;28;20440;-76
2022/08/26 11:20:32;;;;;;;3.33;1.30;;;20.50;99.90;;;;;;5031051;28;20051;-78
2022/08/26 11:23:21;;;;;;;3.95;1.50;;;20.60;99.90;;;;;;5031668;28;20079;-79
2022/08/26 11:25:56;;;;;;;3.80;1.27;;;20.60;99.90;;;;;;5030306;28;20145;-78
2022/08/26 11:28:35;;;;;;;5.60;1.40;;;20.50;99.90;;;;;;5032612;28;20071;-77
2022/08/26 11:31:03;;;;;;;5.07;1.38;;;20.20;99.90;;;;;;5032224;28;20128;-77
2022/08/26 11:33:47;;;;;;;4.25;1.40;;;20.10;99.90;;;;;;5032157;28;20072;-77
2022/08/26 11:36:53;;;;;;;4.40;1.38;;;19.90;99.90;;;;;;5048853;28;20049;-76
2022/08/26 11:39:24;;;;;;;4.45;1.17;;;19.80;99.90;;;;;;5049233;28;20037;-77
2022/08/26 11:41:54;;;;;;;4.53;1.17;;;19.90;99.90;;;;;;5048251;28;20567;-78
2022/08/26 11:44:23;;;;;;;1.95;0.90;;;19.80;99.90;;;;;;5032307;28;20045;-78
2022/08/26 11:46:58;;;;;;;3.05;0.98;;;19.70;99.90;;;;;;5048747;28;20048;-77
2022/08/26 11:49:27;;;;;;;3.78;1.20;;;19.80;99.90;;;;;;5035559;28;20052;-78
2022/08/26 11:52:15;;;;;;;3.58;1.15;;;19.70;99.90;;;;;;5053835;28;20057;-77
2022/08/26 11:55:02;;;;;;;3.08;1.10;;;19.60;99.90;;;;;;5052078;28;20055;-78
2022/08/26 11:57:31;;;;;;;4.38;1.20;;;19.50;99.90;;;;;;5052652;28;20048;-79
2022/08/26 11:59:57;;;;;;;3.35;1.20;;;19.50;99.90;;;;;;5052794;28;20041;-79
2022/08/26 12:02:23;;;;;;;;;;;19.50;99.90;;;;;;5019909;28;20045;-77
2022/08/26 12:04:50;;;;;;;2.75;1.17;;;19.30;99.90;;;;;;5052676;28;20391;-78
2022/08/26 12:07:22;;;;;;;3.10;1.10;;;19.70;99.90;;;;;;5024041;28;20033;-78
2022/08/26 12:09:57;;;;;;;3.03;1.00;;;19.80;99.90;;;;;;5051832;28;20048;-77
2022/08/26 12:12:25;;;;;;;4.32;1.05;;;19.90;99.90;;;;;;5035589;28;20056;-76
2022/08/26 12:15:04;;;;;;;2.17;1.00;;;19.90;99.90;;;;;;5052323;28;20049;-78
2022/08/26 12:17:30;;;;;;;4.00;0.98;;;20.00;99.90;;;;;;5052403;28;20049;-78
2022/08/26 12:19:56;;;;;;;3.35;1.10;;;19.90;99.90;;;;;;5036059;28;20067;-77
2022/08/26 12:22:24;;;;;;;;;;;19.70;99.90;;;;;;5035982;28;20488;-78
2022/08/26 12:25:04;;;;;;;2.17;0.88;;;19.90;99.90;;;;;;5052835;28;19982;-83
2022/08/26 12:27:41;;;;;;;1.80;0.90;;;19.90;99.90;;;;;;5035126;28;20056;-83
2022/08/26 12:30:14;;;;;;;3.30;0.80;;;19.90;99.90;;;;;;5052977;28;20140;-83
2022/08/26 12:32:45;;;;;;;1.98;0.70;;;19.90;99.90;;;;;;5036021;28;20053;-83
2022/08/26 12:35:15;;;;;;;3.80;1.00;;;20.00;99.90;;;;;;5017081;28;20084;-82
2022/08/26 12:37:44;;;;;;;4.20;0.80;;;19.90;99.90;;;;;;5052751;28;20044;-83
2022/08/26 12:40:29;;;;;;;2.10;0.77;;;19.80;99.90;;;;;;5054374;28;20033;-84
2022/08/26 12:42:59;;;;;;;1.70;0.60;;;19.80;99.90;;;;;;5052862;28;20480;-83
2022/08/26 12:45:29;;;;;;;1.83;0.70;;;19.80;99.90;;;;;;5053116;28;20428;-84
2022/08/26 12:48:04;;;;;;;1.50;0.80;;;19.90;99.90;;;;;;5052675;28;20122;-84
2022/08/26 12:50:33;;;;;;;1.67;0.70;;;19.80;99.90;;;;;;5053355;28;20053;-84
2022/08/26 12:53:10;;;;;;;2.35;0.80;;;19.80;99.90;;;;;;5052777;28;20056;-83
2022/08/26 12:55:41;;;;;;;2.28;0.88;;;19.90;99.90;;;;;;5032814;28;20043;-83
2022/08/26 12:58:34;;;;;;;2.03;0.98;;;20.10;99.90;;;;;;5034963;28;20053;-83
2022/08/26 13:01:02;;;;;;;2.83;1.10;;;20.00;99.90;;;;;;5051993;28;20072;-83
2022/08/26 13:03:28;;;;;;;3.38;1.17;;;20.00;99.90;;;;;;5035872;28;20380;-84
2022/08/26 13:06:07;;;;;;;;;;;20.10;99.90;;;;;;5052831;28;20055;-84
2022/08/26 13:08:33;;;;;;;5.00;1.50;;;19.90;99.90;;;;;;5052201;28;20379;-83
2022/08/26 13:11:17;;;;;;;3.88;1.60;;;19.60;99.90;;;;;;5035137;28;20044;-83
2022/08/26 13:13:44;;;;;;;3.97;1.20;;;19.50;99.90;;;;;;5035544;28;20052;-83
2022/08/26 13:16:11;;;;;;;4.00;1.35;;;19.30;99.90;;;;;;5052179;28;20077;-83
2022/08/26 13:18:37;;;;;;;2.42;0.98;;;19.40;99.90;;;;;;5051819;28;20041;-84
2022/08/26 13:21:15;;;;;;;;;;;19.30;99.90;;;;;;5053956;28;20064;-84
2022/08/26 13:23:41;;;;;;;5.15;1.60;;;19.50;99.90;;;;;;5054126;28;19924;-83